sensor_id;sensor_type;location;lat;lon;timestamp;P1;durP1;ratioP1;P2;durP2;ratioP2
14603;SDS011;7388;51.078;13.740;2023-02-03T00:00:39;5.78;;;3.42;;
14603;SDS011;7388;51.078;13.740;2023-02-03T00:03:05;5.37;;;3.10;;
14603;SDS011;7388;51.078;13.740;2023-02-03T00:05:31;6.10;;;3.35;;
14603;SDS011;7388;51.078;13.740;2023-02-03T00:07:59;9.43;;;3.97;;
14603;SDS011;7388;51.078;13.740;2023-02-03T00:10:26;5.47;;;3.28;;
14603;SDS011;7388;51.078;13.740;2023-02-03T00:12:52;5.17;;;3.70;;
14603;SDS011;7388;51.078;13.740;2023-02-03T00:15:18;5.72;;;3.72;;
14603;SDS011;7388;51.078;13.740;2023-02-03T00:17:44;6.38;;;4.40;;
14603;SDS011;7388;51.078;13.740;2023-02-03T00:20:10;8.63;;;4.50;;
14603;SDS011;7388;51.078;13.740;2023-02-03T00:22:36;9.10;;;4.32;;
14603;SDS011;7388;51.078;13.740;2023-02-03T00:25:02;10.27;;;4.43;;
14603;SDS011;7388;51.078;13.740;2023-02-03T00:27:28;10.63;;;3.47;;
14603;SDS011;7388;51.078;13.740;2023-02-03T00:29:54;6.87;;;4.23;;
14603;SDS011;7388;51.078;13.740;2023-02-03T00:32:20;12.40;;;4.50;;
14603;SDS011;7388;51.078;13.740;2023-02-03T00:34:46;6.07;;;4.07;;
14603;SDS011;7388;51.078;13.740;2023-02-03T00:37:12;15.43;;;4.20;;
14603;SDS011;7388;51.078;13.740;2023-02-03T00:39:37;7.55;;;3.00;;
14603;SDS011;7388;51.078;13.740;2023-02-03T00:42:04;7.47;;;3.13;;
14603;SDS011;7388;51.078;13.740;2023-02-03T00:44:30;5.43;;;3.33;;
14603;SDS011;7388;51.078;13.740;2023-02-03T00:46:56;8.32;;;4.22;;
14603;SDS011;7388;51.078;13.740;2023-02-03T00:49:22;8.20;;;4.63;;
14603;SDS011;7388;51.078;13.740;2023-02-03T00:51:48;7.65;;;3.53;;
14603;SDS011;7388;51.078;13.740;2023-02-03T00:54:14;5.93;;;3.75;;
14603;SDS011;7388;51.078;13.740;2023-02-03T00:56:40;6.00;;;3.30;;
14603;SDS011;7388;51.078;13.740;2023-02-03T00:59:06;11.90;;;4.60;;
14603;SDS011;7388;51.078;13.740;2023-02-03T01:01:32;7.83;;;3.70;;
14603;SDS011;7388;51.078;13.740;2023-02-03T01:03:59;9.43;;;3.55;;
14603;SDS011;7388;51.078;13.740;2023-02-03T01:06:25;4.70;;;3.38;;
14603;SDS011;7388;51.078;13.740;2023-02-03T01:08:51;6.57;;;3.70;;
14603;SDS011;7388;51.078;13.740;2023-02-03T01:11:18;6.87;;;2.87;;
14603;SDS011;7388;51.078;13.740;2023-02-03T01:13:49;10.93;;;3.53;;
14603;SDS011;7388;51.078;13.740;2023-02-03T01:16:17;7.03;;;3.45;;
14603;SDS011;7388;51.078;13.740;2023-02-03T01:18:44;3.85;;;2.88;;
14603;SDS011;7388;51.078;13.740;2023-02-03T01:21:11;4.45;;;2.70;;
14603;SDS011;7388;51.078;13.740;2023-02-03T01:23:38;5.85;;;2.33;;
14603;SDS011;7388;51.078;13.740;2023-02-03T01:26:05;7.43;;;3.13;;
14603;SDS011;7388;51.078;13.740;2023-02-03T01:28:32;4.18;;;2.72;;
14603;SDS011;7388;51.078;13.740;2023-02-03T01:33:34;5.82;;;2.30;;
14603;SDS011;7388;51.078;13.740;2023-02-03T01:36:00;3.93;;;2.60;;
14603;SDS011;7388;51.078;13.740;2023-02-03T01:38:26;7.13;;;3.63;;
14603;SDS011;7388;51.078;13.740;2023-02-03T01:40:51;4.73;;;3.00;;
14603;SDS011;7388;51.078;13.740;2023-02-03T01:43:27;8.57;;;2.00;;
14603;SDS011;7388;51.078;13.740;2023-02-03T01:46:05;8.55;;;2.50;;
14603;SDS011;7388;51.078;13.740;2023-02-03T01:48:42;7.30;;;2.65;;
14603;SDS011;7388;51.078;13.740;2023-02-03T01:51:08;3.55;;;2.55;;
14603;SDS011;7388;51.078;13.740;2023-02-03T01:53:34;4.60;;;2.90;;
14603;SDS011;7388;51.078;13.740;2023-02-03T01:56:01;11.20;;;3.17;;
14603;SDS011;7388;51.078;13.740;2023-02-03T01:58:30;3.20;;;2.00;;
14603;SDS011;7388;51.078;13.740;2023-02-03T02:00:59;5.95;;;2.60;;
14603;SDS011;7388;51.078;13.740;2023-02-03T02:03:58;7.10;;;2.42;;
14603;SDS011;7388;51.078;13.740;2023-02-03T02:06:19;4.05;;;2.58;;
14603;SDS011;7388;51.078;13.740;2023-02-03T02:08:46;2.43;;;1.63;;
14603;SDS011;7388;51.078;13.740;2023-02-03T02:11:14;5.95;;;1.70;;
14603;SDS011;7388;51.078;13.740;2023-02-03T02:13:40;2.97;;;1.73;;
14603;SDS011;7388;51.078;13.740;2023-02-03T02:36:34;2.50;;;1.80;;
14603;SDS011;7388;51.078;13.740;2023-02-03T02:39:24;5.10;;;2.00;;
14603;SDS011;7388;51.078;13.740;2023-02-03T02:42:06;6.05;;;2.30;;
14603;SDS011;7388;51.078;13.740;2023-02-03T02:44:45;5.05;;;1.95;;
14603;SDS011;7388;51.078;13.740;2023-02-03T02:47:20;5.32;;;2.10;;
14603;SDS011;7388;51.078;13.740;2023-02-03T02:49:55;5.80;;;1.90;;
14603;SDS011;7388;51.078;13.740;2023-02-03T02:52:23;7.05;;;3.05;;
14603;SDS011;7388;51.078;13.740;2023-02-03T02:54:52;6.53;;;2.03;;
14603;SDS011;7388;51.078;13.740;2023-02-03T02:57:22;8.73;;;1.75;;
14603;SDS011;7388;51.078;13.740;2023-02-03T02:59:50;7.20;;;2.35;;
14603;SDS011;7388;51.078;13.740;2023-02-03T03:02:17;3.92;;;2.13;;
14603;SDS011;7388;51.078;13.740;2023-02-03T03:04:43;3.10;;;1.87;;
14603;SDS011;7388;51.078;13.740;2023-02-03T03:07:15;4.68;;;1.90;;
14603;SDS011;7388;51.078;13.740;2023-02-03T03:09:46;3.63;;;2.25;;
14603;SDS011;7388;51.078;13.740;2023-02-03T03:12:27;4.40;;;1.95;;
14603;SDS011;7388;51.078;13.740;2023-02-03T03:15:00;4.50;;;1.75;;
14603;SDS011;7388;51.078;13.740;2023-02-03T03:17:32;3.22;;;2.00;;
14603;SDS011;7388;51.078;13.740;2023-02-03T03:20:03;2.22;;;1.92;;
14603;SDS011;7388;51.078;13.740;2023-02-03T03:22:35;5.43;;;2.33;;
14603;SDS011;7388;51.078;13.740;2023-02-03T03:25:12;3.42;;;2.28;;
14603;SDS011;7388;51.078;13.740;2023-02-03T03:27:43;3.55;;;2.00;;
14603;SDS011;7388;51.078;13.740;2023-02-03T03:30:14;3.63;;;1.88;;
14603;SDS011;7388;51.078;13.740;2023-02-03T03:32:44;3.83;;;2.40;;
14603;SDS011;7388;51.078;13.740;2023-02-03T03:35:10;8.77;;;4.55;;
14603;SDS011;7388;51.078;13.740;2023-02-03T03:37:37;4.80;;;2.10;;
14603;SDS011;7388;51.078;13.740;2023-02-03T03:40:19;4.10;;;2.78;;
14603;SDS011;7388;51.078;13.740;2023-02-03T03:42:59;3.40;;;2.35;;
14603;SDS011;7388;51.078;13.740;2023-02-03T03:45:54;3.15;;;2.10;;
14603;SDS011;7388;51.078;13.740;2023-02-03T03:51:01;3.10;;;2.13;;
14603;SDS011;7388;51.078;13.740;2023-02-03T03:53:31;4.25;;;2.47;;
14603;SDS011;7388;51.078;13.740;2023-02-03T03:56:00;4.78;;;3.00;;
14603;SDS011;7388;51.078;13.740;2023-02-03T03:58:31;2.72;;;2.10;;
14603;SDS011;7388;51.078;13.740;2023-02-03T04:00:58;3.17;;;2.20;;
14603;SDS011;7388;51.078;13.740;2023-02-03T04:03:48;3.10;;;2.63;;
14603;SDS011;7388;51.078;13.740;2023-02-03T04:06:14;4.93;;;2.38;;
14603;SDS011;7388;51.078;13.740;2023-02-03T04:08:40;3.87;;;2.57;;
14603;SDS011;7388;51.078;13.740;2023-02-03T04:11:06;3.63;;;2.07;;
14603;SDS011;7388;51.078;13.740;2023-02-03T04:13:32;4.18;;;2.40;;
14603;SDS011;7388;51.078;13.740;2023-02-03T04:15:57;3.17;;;2.30;;
14603;SDS011;7388;51.078;13.740;2023-02-03T04:18:23;3.00;;;2.63;;
14603;SDS011;7388;51.078;13.740;2023-02-03T04:20:49;3.10;;;2.27;;
14603;SDS011;7388;51.078;13.740;2023-02-03T04:23:15;4.35;;;2.55;;
14603;SDS011;7388;51.078;13.740;2023-02-03T04:25:41;4.00;;;2.90;;
14603;SDS011;7388;51.078;13.740;2023-02-03T04:28:07;9.07;;;4.20;;
14603;SDS011;7388;51.078;13.740;2023-02-03T04:30:33;4.15;;;3.13;;
14603;SDS011;7388;51.078;13.740;2023-02-03T04:32:58;4.80;;;3.33;;
14603;SDS011;7388;51.078;13.740;2023-02-03T04:35:24;4.67;;;3.33;;
14603;SDS011;7388;51.078;13.740;2023-02-03T04:37:50;5.13;;;3.73;;
14603;SDS011;7388;51.078;13.740;2023-02-03T04:40:16;4.87;;;3.83;;
14603;SDS011;7388;51.078;13.740;2023-02-03T04:42:42;5.80;;;4.45;;
14603;SDS011;7388;51.078;13.740;2023-02-03T04:45:08;6.27;;;4.27;;
14603;SDS011;7388;51.078;13.740;2023-02-03T04:47:36;6.22;;;4.53;;
14603;SDS011;7388;51.078;13.740;2023-02-03T04:50:03;7.47;;;5.03;;
14603;SDS011;7388;51.078;13.740;2023-02-03T04:52:30;6.80;;;4.50;;
14603;SDS011;7388;51.078;13.740;2023-02-03T04:54:56;6.25;;;4.25;;
14603;SDS011;7388;51.078;13.740;2023-02-03T04:57:22;5.73;;;4.77;;
14603;SDS011;7388;51.078;13.740;2023-02-03T04:59:47;6.70;;;5.47;;
14603;SDS011;7388;51.078;13.740;2023-02-03T05:02:13;6.53;;;4.80;;
14603;SDS011;7388;51.078;13.740;2023-02-03T05:04:39;6.40;;;5.17;;
14603;SDS011;7388;51.078;13.740;2023-02-03T05:07:04;7.37;;;5.40;;
14603;SDS011;7388;51.078;13.740;2023-02-03T05:09:30;6.60;;;4.40;;
14603;SDS011;7388;51.078;13.740;2023-02-03T05:11:56;5.57;;;4.60;;
14603;SDS011;7388;51.078;13.740;2023-02-03T05:14:21;6.20;;;5.60;;
14603;SDS011;7388;51.078;13.740;2023-02-03T05:16:47;7.50;;;5.47;;
14603;SDS011;7388;51.078;13.740;2023-02-03T05:19:13;9.23;;;5.23;;
14603;SDS011;7388;51.078;13.740;2023-02-03T05:21:39;11.30;;;5.90;;
14603;SDS011;7388;51.078;13.740;2023-02-03T05:24:05;8.73;;;5.97;;
14603;SDS011;7388;51.078;13.740;2023-02-03T05:26:32;7.28;;;5.07;;
14603;SDS011;7388;51.078;13.740;2023-02-03T05:28:58;8.70;;;5.68;;
14603;SDS011;7388;51.078;13.740;2023-02-03T05:31:24;7.30;;;5.80;;
14603;SDS011;7388;51.078;13.740;2023-02-03T05:33:50;6.80;;;5.10;;
14603;SDS011;7388;51.078;13.740;2023-02-03T05:36:16;5.83;;;4.43;;
14603;SDS011;7388;51.078;13.740;2023-02-03T05:38:42;7.97;;;5.63;;
14603;SDS011;7388;51.078;13.740;2023-02-03T05:41:11;9.10;;;5.57;;
14603;SDS011;7388;51.078;13.740;2023-02-03T05:43:55;6.35;;;5.25;;
14603;SDS011;7388;51.078;13.740;2023-02-03T05:46:21;9.20;;;5.60;;
14603;SDS011;7388;51.078;13.740;2023-02-03T05:48:47;7.53;;;5.53;;
14603;SDS011;7388;51.078;13.740;2023-02-03T05:51:12;10.87;;;5.43;;
14603;SDS011;7388;51.078;13.740;2023-02-03T05:53:38;6.93;;;4.30;;
14603;SDS011;7388;51.078;13.740;2023-02-03T05:56:04;9.80;;;5.87;;
14603;SDS011;7388;51.078;13.740;2023-02-03T05:58:30;6.82;;;5.50;;
14603;SDS011;7388;51.078;13.740;2023-02-03T06:00:56;6.57;;;5.20;;
14603;SDS011;7388;51.078;13.740;2023-02-03T06:03:21;8.13;;;5.87;;
14603;SDS011;7388;51.078;13.740;2023-02-03T06:05:47;8.63;;;6.03;;
14603;SDS011;7388;51.078;13.740;2023-02-03T06:08:13;7.10;;;4.80;;
14603;SDS011;7388;51.078;13.740;2023-02-03T06:10:39;7.93;;;5.93;;
14603;SDS011;7388;51.078;13.740;2023-02-03T06:13:09;7.57;;;5.37;;
14603;SDS011;7388;51.078;13.740;2023-02-03T06:15:39;9.02;;;6.00;;
14603;SDS011;7388;51.078;13.740;2023-02-03T06:18:06;11.35;;;6.00;;
14603;SDS011;7388;51.078;13.740;2023-02-03T06:20:32;7.18;;;5.72;;
14603;SDS011;7388;51.078;13.740;2023-02-03T06:22:58;6.75;;;5.57;;
14603;SDS011;7388;51.078;13.740;2023-02-03T06:25:24;8.77;;;5.27;;
14603;SDS011;7388;51.078;13.740;2023-02-03T06:27:50;6.10;;;5.10;;
14603;SDS011;7388;51.078;13.740;2023-02-03T06:30:16;6.27;;;4.47;;
14603;SDS011;7388;51.078;13.740;2023-02-03T06:32:42;10.48;;;5.43;;
14603;SDS011;7388;51.078;13.740;2023-02-03T06:35:07;7.47;;;5.90;;
14603;SDS011;7388;51.078;13.740;2023-02-03T06:37:33;5.37;;;4.13;;
14603;SDS011;7388;51.078;13.740;2023-02-03T06:39:59;6.00;;;4.13;;
14603;SDS011;7388;51.078;13.740;2023-02-03T06:42:26;8.60;;;5.40;;
14603;SDS011;7388;51.078;13.740;2023-02-03T06:44:52;5.93;;;5.00;;
14603;SDS011;7388;51.078;13.740;2023-02-03T06:47:19;9.50;;;4.70;;
14603;SDS011;7388;51.078;13.740;2023-02-03T06:49:44;5.87;;;4.13;;
14603;SDS011;7388;51.078;13.740;2023-02-03T06:52:10;5.43;;;4.60;;
14603;SDS011;7388;51.078;13.740;2023-02-03T06:54:36;6.17;;;4.70;;
14603;SDS011;7388;51.078;13.740;2023-02-03T06:57:02;6.17;;;4.83;;
14603;SDS011;7388;51.078;13.740;2023-02-03T06:59:28;5.63;;;4.35;;
14603;SDS011;7388;51.078;13.740;2023-02-03T07:01:54;11.60;;;5.13;;
14603;SDS011;7388;51.078;13.740;2023-02-03T07:04:19;10.57;;;5.13;;
14603;SDS011;7388;51.078;13.740;2023-02-03T07:06:45;6.73;;;4.67;;
14603;SDS011;7388;51.078;13.740;2023-02-03T07:09:11;5.77;;;4.90;;
14603;SDS011;7388;51.078;13.740;2023-02-03T07:11:37;6.10;;;4.83;;
14603;SDS011;7388;51.078;13.740;2023-02-03T07:14:03;12.05;;;4.63;;
14603;SDS011;7388;51.078;13.740;2023-02-03T07:16:29;8.33;;;4.67;;
14603;SDS011;7388;51.078;13.740;2023-02-03T07:18:55;8.13;;;4.70;;
14603;SDS011;7388;51.078;13.740;2023-02-03T07:21:21;6.37;;;5.30;;
14603;SDS011;7388;51.078;13.740;2023-02-03T07:23:47;7.73;;;5.87;;
14603;SDS011;7388;51.078;13.740;2023-02-03T07:26:13;5.00;;;4.50;;
14603;SDS011;7388;51.078;13.740;2023-02-03T07:28:39;6.97;;;4.53;;
14603;SDS011;7388;51.078;13.740;2023-02-03T07:31:05;6.07;;;3.80;;
14603;SDS011;7388;51.078;13.740;2023-02-03T07:33:34;6.80;;;4.03;;
14603;SDS011;7388;51.078;13.740;2023-02-03T07:36:00;5.10;;;4.05;;
14603;SDS011;7388;51.078;13.740;2023-02-03T07:38:27;7.45;;;4.32;;
14603;SDS011;7388;51.078;13.740;2023-02-03T07:40:53;7.05;;;4.05;;
14603;SDS011;7388;51.078;13.740;2023-02-03T07:43:19;9.50;;;4.25;;
14603;SDS011;7388;51.078;13.740;2023-02-03T07:45:45;4.47;;;3.67;;
14603;SDS011;7388;51.078;13.740;2023-02-03T07:48:11;4.10;;;3.67;;
14603;SDS011;7388;51.078;13.740;2023-02-03T07:50:37;4.28;;;3.00;;
14603;SDS011;7388;51.078;13.740;2023-02-03T07:53:04;5.28;;;3.78;;
14603;SDS011;7388;51.078;13.740;2023-02-03T07:55:31;6.70;;;3.53;;
14603;SDS011;7388;51.078;13.740;2023-02-03T07:57:57;3.73;;;2.93;;
14603;SDS011;7388;51.078;13.740;2023-02-03T08:00:23;6.85;;;3.30;;
14603;SDS011;7388;51.078;13.740;2023-02-03T08:02:49;4.50;;;2.95;;
14603;SDS011;7388;51.078;13.740;2023-02-03T08:05:15;5.13;;;3.40;;
14603;SDS011;7388;51.078;13.740;2023-02-03T08:07:42;5.00;;;3.50;;
14603;SDS011;7388;51.078;13.740;2023-02-03T08:10:09;5.95;;;4.07;;
14603;SDS011;7388;51.078;13.740;2023-02-03T08:12:36;3.80;;;3.03;;
14603;SDS011;7388;51.078;13.740;2023-02-03T08:15:03;4.00;;;2.88;;
14603;SDS011;7388;51.078;13.740;2023-02-03T08:17:29;4.50;;;3.45;;
14603;SDS011;7388;51.078;13.740;2023-02-03T08:19:55;2.87;;;2.47;;
14603;SDS011;7388;51.078;13.740;2023-02-03T08:22:20;3.70;;;2.90;;
14603;SDS011;7388;51.078;13.740;2023-02-03T08:24:46;4.07;;;3.20;;
14603;SDS011;7388;51.078;13.740;2023-02-03T08:27:13;5.20;;;3.80;;
14603;SDS011;7388;51.078;13.740;2023-02-03T08:29:40;3.47;;;2.65;;
14603;SDS011;7388;51.078;13.740;2023-02-03T08:32:13;4.55;;;3.25;;
14603;SDS011;7388;51.078;13.740;2023-02-03T08:34:41;4.43;;;3.30;;
14603;SDS011;7388;51.078;13.740;2023-02-03T08:37:07;5.50;;;3.60;;
14603;SDS011;7388;51.078;13.740;2023-02-03T08:39:34;4.30;;;2.70;;
14603;SDS011;7388;51.078;13.740;2023-02-03T08:42:00;3.70;;;2.60;;
14603;SDS011;7388;51.078;13.740;2023-02-03T08:44:28;3.60;;;2.60;;
14603;SDS011;7388;51.078;13.740;2023-02-03T08:46:55;4.10;;;2.42;;
14603;SDS011;7388;51.078;13.740;2023-02-03T08:49:21;4.43;;;2.38;;
14603;SDS011;7388;51.078;13.740;2023-02-03T08:51:47;3.10;;;2.60;;
14603;SDS011;7388;51.078;13.740;2023-02-03T08:54:13;4.23;;;2.47;;
14603;SDS011;7388;51.078;13.740;2023-02-03T08:56:39;5.60;;;2.83;;
14603;SDS011;7388;51.078;13.740;2023-02-03T08:59:05;4.30;;;3.00;;
14603;SDS011;7388;51.078;13.740;2023-02-03T09:01:31;4.43;;;3.15;;
14603;SDS011;7388;51.078;13.740;2023-02-03T09:03:57;5.13;;;3.42;;
14603;SDS011;7388;51.078;13.740;2023-02-03T09:06:26;5.10;;;2.70;;
14603;SDS011;7388;51.078;13.740;2023-02-03T09:08:53;4.55;;;3.42;;
14603;SDS011;7388;51.078;13.740;2023-02-03T09:11:19;4.10;;;2.70;;
14603;SDS011;7388;51.078;13.740;2023-02-03T09:13:44;4.37;;;3.63;;
14603;SDS011;7388;51.078;13.740;2023-02-03T09:16:11;5.60;;;2.60;;
14603;SDS011;7388;51.078;13.740;2023-02-03T09:18:37;6.95;;;3.85;;
14603;SDS011;7388;51.078;13.740;2023-02-03T09:21:04;6.03;;;3.40;;
14603;SDS011;7388;51.078;13.740;2023-02-03T09:23:32;6.60;;;3.33;;
14603;SDS011;7388;51.078;13.740;2023-02-03T09:26:01;4.80;;;2.50;;
14603;SDS011;7388;51.078;13.740;2023-02-03T09:28:28;4.47;;;3.17;;
14603;SDS011;7388;51.078;13.740;2023-02-03T09:30:57;7.05;;;3.80;;
14603;SDS011;7388;51.078;13.740;2023-02-03T09:33:27;5.50;;;4.07;;
14603;SDS011;7388;51.078;13.740;2023-02-03T09:35:53;6.20;;;4.30;;
14603;SDS011;7388;51.078;13.740;2023-02-03T09:38:20;5.82;;;3.00;;
14603;SDS011;7388;51.078;13.740;2023-02-03T09:40:48;4.40;;;3.43;;
14603;SDS011;7388;51.078;13.740;2023-02-03T09:46:23;4.70;;;3.80;;
14603;SDS011;7388;51.078;13.740;2023-02-03T09:48:53;7.30;;;4.78;;
14603;SDS011;7388;51.078;13.740;2023-02-03T09:51:30;5.38;;;3.53;;
14603;SDS011;7388;51.078;13.740;2023-02-03T09:54:11;5.95;;;4.90;;
14603;SDS011;7388;51.078;13.740;2023-02-03T09:56:42;6.07;;;4.82;;
14603;SDS011;7388;51.078;13.740;2023-02-03T09:59:16;6.40;;;3.53;;
14603;SDS011;7388;51.078;13.740;2023-02-03T10:01:59;7.72;;;3.33;;
14603;SDS011;7388;51.078;13.740;2023-02-03T10:04:56;6.50;;;3.78;;
14603;SDS011;7388;51.078;13.740;2023-02-03T10:10:40;8.23;;;3.80;;
14603;SDS011;7388;51.078;13.740;2023-02-03T10:16:11;5.97;;;3.42;;
14603;SDS011;7388;51.078;13.740;2023-02-03T10:18:40;5.25;;;3.40;;
14603;SDS011;7388;51.078;13.740;2023-02-03T10:23:55;5.60;;;2.90;;
14603;SDS011;7388;51.078;13.740;2023-02-03T10:26:24;4.95;;;3.67;;
14603;SDS011;7388;51.078;13.740;2023-02-03T10:28:55;11.88;;;4.10;;
14603;SDS011;7388;51.078;13.740;2023-02-03T10:31:24;4.28;;;2.78;;
14603;SDS011;7388;51.078;13.740;2023-02-03T10:34:03;3.55;;;3.10;;
14603;SDS011;7388;51.078;13.740;2023-02-03T10:42:00;5.22;;;3.50;;
14603;SDS011;7388;51.078;13.740;2023-02-03T10:45:11;6.25;;;3.60;;
14603;SDS011;7388;51.078;13.740;2023-02-03T10:47:23;7.05;;;2.85;;
14603;SDS011;7388;51.078;13.740;2023-02-03T10:49:52;5.50;;;3.53;;
14603;SDS011;7388;51.078;13.740;2023-02-03T10:52:27;4.82;;;2.63;;
14603;SDS011;7388;51.078;13.740;2023-02-03T10:54:58;5.28;;;3.47;;
14603;SDS011;7388;51.078;13.740;2023-02-03T10:57:34;4.78;;;2.75;;
14603;SDS011;7388;51.078;13.740;2023-02-03T11:00:07;4.00;;;2.85;;
14603;SDS011;7388;51.078;13.740;2023-02-03T11:02:39;4.90;;;3.35;;
14603;SDS011;7388;51.078;13.740;2023-02-03T11:07:41;4.43;;;3.17;;
14603;SDS011;7388;51.078;13.740;2023-02-03T11:21:23;5.47;;;2.45;;
14603;SDS011;7388;51.078;13.740;2023-02-03T11:24:15;4.50;;;2.45;;
14603;SDS011;7388;51.078;13.740;2023-02-03T11:26:48;5.72;;;2.38;;
14603;SDS011;7388;51.078;13.740;2023-02-03T11:29:27;3.30;;;2.53;;
14603;SDS011;7388;51.078;13.740;2023-02-03T11:31:56;4.30;;;2.90;;
14603;SDS011;7388;51.078;13.740;2023-02-03T11:34:26;3.90;;;2.83;;
14603;SDS011;7388;51.078;13.740;2023-02-03T11:36:52;3.35;;;2.80;;
14603;SDS011;7388;51.078;13.740;2023-02-03T11:39:28;3.92;;;2.92;;
14603;SDS011;7388;51.078;13.740;2023-02-03T11:41:59;2.90;;;2.45;;
14603;SDS011;7388;51.078;13.740;2023-02-03T11:44:29;3.65;;;2.28;;
14603;SDS011;7388;51.078;13.740;2023-02-03T11:47:01;5.25;;;2.65;;
14603;SDS011;7388;51.078;13.740;2023-02-03T11:49:45;3.47;;;2.28;;
14603;SDS011;7388;51.078;13.740;2023-02-03T12:06:17;2.50;;;2.10;;
14603;SDS011;7388;51.078;13.740;2023-02-03T12:08:54;2.65;;;1.80;;
14603;SDS011;7388;51.078;13.740;2023-02-03T12:11:35;3.08;;;2.15;;
14603;SDS011;7388;51.078;13.740;2023-02-03T12:22:17;2.85;;;1.70;;
14603;SDS011;7388;51.078;13.740;2023-02-03T12:30:57;2.53;;;1.98;;
14603;SDS011;7388;51.078;13.740;2023-02-03T12:33:32;3.08;;;1.40;;
14603;SDS011;7388;51.078;13.740;2023-02-03T12:36:06;1.95;;;1.25;;
14603;SDS011;7388;51.078;13.740;2023-02-03T12:38:38;2.55;;;1.70;;
14603;SDS011;7388;51.078;13.740;2023-02-03T12:41:14;1.35;;;0.98;;
14603;SDS011;7388;51.078;13.740;2023-02-03T12:43:45;1.42;;;0.93;;
14603;SDS011;7388;51.078;13.740;2023-02-03T12:48:50;1.90;;;1.45;;
14603;SDS011;7388;51.078;13.740;2023-02-03T12:51:56;1.83;;;1.20;;
14603;SDS011;7388;51.078;13.740;2023-02-03T12:54:55;3.17;;;1.15;;
14603;SDS011;7388;51.078;13.740;2023-02-03T12:57:33;4.05;;;1.98;;
14603;SDS011;7388;51.078;13.740;2023-02-03T13:02:31;2.17;;;1.40;;
14603;SDS011;7388;51.078;13.740;2023-02-03T13:05:27;3.70;;;1.83;;
14603;SDS011;7388;51.078;13.740;2023-02-03T13:08:07;4.32;;;1.92;;
14603;SDS011;7388;51.078;13.740;2023-02-03T13:10:46;3.83;;;1.90;;
14603;SDS011;7388;51.078;13.740;2023-02-03T13:13:30;3.70;;;1.80;;
14603;SDS011;7388;51.078;13.740;2023-02-03T13:16:02;5.63;;;1.90;;
14603;SDS011;7388;51.078;13.740;2023-02-03T13:18:40;2.10;;;1.75;;
14603;SDS011;7388;51.078;13.740;2023-02-03T13:21:10;4.22;;;1.55;;
14603;SDS011;7388;51.078;13.740;2023-02-03T13:23:38;3.35;;;1.20;;
14603;SDS011;7388;51.078;13.740;2023-02-03T13:42:31;10.50;;;2.35;;
14603;SDS011;7388;51.078;13.740;2023-02-03T13:48:09;3.05;;;1.65;;
14603;SDS011;7388;51.078;13.740;2023-02-03T13:50:44;6.53;;;2.15;;
14603;SDS011;7388;51.078;13.740;2023-02-03T13:53:16;4.30;;;1.90;;
14603;SDS011;7388;51.078;13.740;2023-02-03T13:55:59;8.02;;;3.30;;
14603;SDS011;7388;51.078;13.740;2023-02-03T13:58:28;4.93;;;2.88;;
14603;SDS011;7388;51.078;13.740;2023-02-03T14:01:01;11.18;;;2.35;;
14603;SDS011;7388;51.078;13.740;2023-02-03T14:05:56;12.27;;;2.43;;
14603;SDS011;7388;51.078;13.740;2023-02-03T14:16:50;13.57;;;5.00;;
14603;SDS011;7388;51.078;13.740;2023-02-03T14:21:54;5.75;;;3.40;;
14603;SDS011;7388;51.078;13.740;2023-02-03T14:24:30;10.25;;;2.83;;
14603;SDS011;7388;51.078;13.740;2023-02-03T14:27:04;13.23;;;2.85;;
14603;SDS011;7388;51.078;13.740;2023-02-03T14:29:41;5.88;;;2.30;;
14603;SDS011;7388;51.078;13.740;2023-02-03T14:32:07;10.23;;;2.88;;
14603;SDS011;7388;51.078;13.740;2023-02-03T14:45:34;11.65;;;2.40;;
14603;SDS011;7388;51.078;13.740;2023-02-03T15:00:02;14.35;;;3.22;;
14603;SDS011;7388;51.078;13.740;2023-02-03T15:02:27;11.48;;;3.28;;
14603;SDS011;7388;51.078;13.740;2023-02-03T15:10:39;15.45;;;3.63;;
14603;SDS011;7388;51.078;13.740;2023-02-03T15:13:22;5.60;;;2.97;;
14603;SDS011;7388;51.078;13.740;2023-02-03T15:15:53;9.43;;;3.03;;
14603;SDS011;7388;51.078;13.740;2023-02-03T15:18:29;12.02;;;2.33;;
14603;SDS011;7388;51.078;13.740;2023-02-03T15:21:01;15.73;;;3.85;;
14603;SDS011;7388;51.078;13.740;2023-02-03T15:23:29;10.52;;;2.50;;
14603;SDS011;7388;51.078;13.740;2023-02-03T15:26:21;10.95;;;3.58;;
14603;SDS011;7388;51.078;13.740;2023-02-03T15:28:58;12.48;;;2.95;;
14603;SDS011;7388;51.078;13.740;2023-02-03T15:31:33;9.27;;;2.92;;
14603;SDS011;7388;51.078;13.740;2023-02-03T15:34:11;11.63;;;2.65;;
14603;SDS011;7388;51.078;13.740;2023-02-03T15:37:46;12.40;;;3.45;;
14603;SDS011;7388;51.078;13.740;2023-02-03T15:40:11;10.45;;;3.58;;
14603;SDS011;7388;51.078;13.740;2023-02-03T15:42:51;12.15;;;3.60;;
14603;SDS011;7388;51.078;13.740;2023-02-03T15:47:56;14.30;;;3.65;;
14603;SDS011;7388;51.078;13.740;2023-02-03T15:50:40;14.38;;;4.55;;
14603;SDS011;7388;51.078;13.740;2023-02-03T15:53:19;9.48;;;3.60;;
14603;SDS011;7388;51.078;13.740;2023-02-03T15:55:55;16.95;;;4.47;;
14603;SDS011;7388;51.078;13.740;2023-02-03T15:58:24;12.52;;;3.22;;
14603;SDS011;7388;51.078;13.740;2023-02-03T16:00:56;21.15;;;4.45;;
14603;SDS011;7388;51.078;13.740;2023-02-03T16:03:36;11.90;;;2.80;;
14603;SDS011;7388;51.078;13.740;2023-02-03T16:06:14;8.43;;;3.25;;
14603;SDS011;7388;51.078;13.740;2023-02-03T16:08:54;9.13;;;4.10;;
14603;SDS011;7388;51.078;13.740;2023-02-03T16:11:22;10.23;;;3.15;;
14603;SDS011;7388;51.078;13.740;2023-02-03T16:13:50;10.60;;;4.05;;
14603;SDS011;7388;51.078;13.740;2023-02-03T16:19:41;13.00;;;3.10;;
14603;SDS011;7388;51.078;13.740;2023-02-03T16:29:50;10.32;;;4.38;;
14603;SDS011;7388;51.078;13.740;2023-02-03T16:32:35;6.47;;;3.03;;
14603;SDS011;7388;51.078;13.740;2023-02-03T16:35:20;12.05;;;5.20;;
14603;SDS011;7388;51.078;13.740;2023-02-03T16:38:05;7.45;;;3.13;;
14603;SDS011;7388;51.078;13.740;2023-02-03T16:41:03;14.73;;;2.95;;
14603;SDS011;7388;51.078;13.740;2023-02-03T16:43:59;10.75;;;3.17;;
14603;SDS011;7388;51.078;13.740;2023-02-03T16:46:43;11.27;;;3.33;;
14603;SDS011;7388;51.078;13.740;2023-02-03T16:49:29;19.90;;;4.05;;
14603;SDS011;7388;51.078;13.740;2023-02-03T16:52:13;7.40;;;2.72;;
14603;SDS011;7388;51.078;13.740;2023-02-03T16:54:39;10.63;;;3.60;;
14603;SDS011;7388;51.078;13.740;2023-02-03T16:57:04;15.50;;;4.37;;
14603;SDS011;7388;51.078;13.740;2023-02-03T16:59:30;14.87;;;3.50;;
14603;SDS011;7388;51.078;13.740;2023-02-03T17:01:56;11.07;;;3.63;;
14603;SDS011;7388;51.078;13.740;2023-02-03T17:04:21;14.53;;;3.23;;
14603;SDS011;7388;51.078;13.740;2023-02-03T17:06:47;6.27;;;3.17;;
14603;SDS011;7388;51.078;13.740;2023-02-03T17:09:15;8.80;;;3.85;;
14603;SDS011;7388;51.078;13.740;2023-02-03T17:11:46;7.78;;;3.78;;
14603;SDS011;7388;51.078;13.740;2023-02-03T17:14:12;14.75;;;3.25;;
14603;SDS011;7388;51.078;13.740;2023-02-03T17:16:38;9.50;;;3.20;;
14603;SDS011;7388;51.078;13.740;2023-02-03T17:19:04;9.63;;;4.20;;
14603;SDS011;7388;51.078;13.740;2023-02-03T17:21:30;16.70;;;2.97;;
14603;SDS011;7388;51.078;13.740;2023-02-03T17:23:56;10.33;;;4.40;;
14603;SDS011;7388;51.078;13.740;2023-02-03T17:26:23;13.27;;;3.58;;
14603;SDS011;7388;51.078;13.740;2023-02-03T17:28:49;12.30;;;3.63;;
14603;SDS011;7388;51.078;13.740;2023-02-03T17:31:16;12.87;;;3.20;;
14603;SDS011;7388;51.078;13.740;2023-02-03T17:33:43;11.30;;;3.10;;
14603;SDS011;7388;51.078;13.740;2023-02-03T17:36:10;11.98;;;3.13;;
14603;SDS011;7388;51.078;13.740;2023-02-03T17:38:42;16.50;;;3.97;;
14603;SDS011;7388;51.078;13.740;2023-02-03T17:41:11;14.32;;;3.38;;
14603;SDS011;7388;51.078;13.740;2023-02-03T17:43:42;19.95;;;3.28;;
14603;SDS011;7388;51.078;13.740;2023-02-03T17:46:08;6.70;;;2.80;;
14603;SDS011;7388;51.078;13.740;2023-02-03T17:48:35;7.60;;;2.92;;